sensor_id;sensor_type;location;lat;lon;timestamp;pressure;altitude;pressure_sealevel;temperature;humidity
33075;BME280;19433;51.292;6.868;2023-04-19T05:31:21;101325.63;;;8.07;87.55
33075;BME280;19433;51.292;6.868;2023-04-19T05:33:47;101331.34;;;8.22;87.54
33075;BME280;19433;51.292;6.868;2023-04-19T05:36:12;101328.03;;;8.10;85.68
33075;BME280;19433;51.292;6.868;2023-04-19T05:38:37;101329.94;;;8.18;86.55
33075;BME280;19433;51.292;6.868;2023-04-19T05:41:03;101341.78;;;8.10;85.15
33075;BME280;19433;51.292;6.868;2023-04-19T05:43:29;101339.56;;;8.05;83.58
33075;BME280;19433;51.292;6.868;2023-04-19T05:45:54;101329.25;;;8.07;86.07
33075;BME280;19433;51.292;6.868;2023-04-19T05:48:19;101334.38;;;8.10;82.50
33075;BME280;19433;51.292;6.868;2023-04-19T05:50:45;101333.25;;;8.21;84.04
33075;BME280;19433;51.292;6.868;2023-04-19T05:53:10;101329.25;;;8.16;83.85
33075;BME280;19433;51.292;6.868;2023-04-19T05:55:36;101332.03;;;8.24;83.05
33075;BME280;19433;51.292;6.868;2023-04-19T05:58:01;101309.44;;;8.12;82.58
33075;BME280;19433;51.292;6.868;2023-04-19T06:00:26;101338.81;;;8.37;82.73
33075;BME280;19433;51.292;6.868;2023-04-19T06:02:52;101336.06;;;8.45;82.42
33075;BME280;19433;51.292;6.868;2023-04-19T06:05:17;101341.94;;;8.59;81.98
33075;BME280;19433;51.292;6.868;2023-04-19T06:07:43;101334.53;;;8.59;80.07
33075;BME280;19433;51.292;6.868;2023-04-19T06:10:08;101322.47;;;8.60;80.65
33075;BME280;19433;51.292;6.868;2023-04-19T06:12:34;101346.94;;;8.55;80.64
33075;BME280;19433;51.292;6.868;2023-04-19T06:14:59;101341.50;;;8.29;81.08
33075;BME280;19433;51.292;6.868;2023-04-19T06:17:24;101324.44;;;8.18;81.30
33075;BME280;19433;51.292;6.868;2023-04-19T06:19:50;101339.78;;;8.20;81.39
33075;BME280;19433;51.292;6.868;2023-04-19T06:22:16;101332.09;;;8.32;84.37
33075;BME280;19433;51.292;6.868;2023-04-19T06:24:43;101334.59;;;8.17;82.19
33075;BME280;19433;51.292;6.868;2023-04-19T06:27:09;101332.03;;;8.24;82.36
33075;BME280;19433;51.292;6.868;2023-04-19T06:29:35;101328.94;;;8.27;82.83
33075;BME280;19433;51.292;6.868;2023-04-19T06:32:00;101341.72;;;8.44;80.25
33075;BME280;19433;51.292;6.868;2023-04-19T06:34:25;101333.16;;;8.63;79.38
33075;BME280;19433;51.292;6.868;2023-04-19T06:36:50;101335.91;;;8.88;80.72
33075;BME280;19433;51.292;6.868;2023-04-19T06:39:16;101333.84;;;9.14;76.34
33075;BME280;19433;51.292;6.868;2023-04-19T06:41:41;101349.50;;;9.22;74.74
33075;BME280;19433;51.292;6.868;2023-04-19T06:44:07;101332.72;;;9.56;76.57
33075;BME280;19433;51.292;6.868;2023-04-19T06:46:32;101334.47;;;10.35;70.11
33075;BME280;19433;51.292;6.868;2023-04-19T06:48:57;101332.00;;;12.41;63.06
33075;BME280;19433;51.292;6.868;2023-04-19T06:51:23;101342.16;;;13.12;58.78
33075;BME280;19433;51.292;6.868;2023-04-19T06:53:49;101343.81;;;15.25;54.83
33075;BME280;19433;51.292;6.868;2023-04-19T06:56:15;101351.03;;;14.80;51.59
33075;BME280;19433;51.292;6.868;2023-04-19T06:58:40;101351.66;;;15.94;49.68
33075;BME280;19433;51.292;6.868;2023-04-19T07:01:05;101353.97;;;16.10;47.23
33075;BME280;19433;51.292;6.868;2023-04-19T07:03:31;101357.78;;;14.45;50.67
33075;BME280;19433;51.292;6.868;2023-04-19T07:05:57;101350.63;;;15.82;48.66
33075;BME280;19433;51.292;6.868;2023-04-19T07:08:23;101347.84;;;15.75;47.89
33075;BME280;19433;51.292;6.868;2023-04-19T07:10:48;101356.94;;;16.80;46.20
33075;BME280;19433;51.292;6.868;2023-04-19T07:13:13;101359.25;;;17.89;42.01
33075;BME280;19433;51.292;6.868;2023-04-19T07:15:39;101366.28;;;17.48;42.51
33075;BME280;19433;51.292;6.868;2023-04-19T07:18:04;101354.34;;;16.34;43.00
33075;BME280;19433;51.292;6.868;2023-04-19T07:20:29;101360.47;;;18.18;42.18
33075;BME280;19433;51.292;6.868;2023-04-19T07:22:59;101360.84;;;19.18;39.77
33075;BME280;19433;51.292;6.868;2023-04-19T07:25:25;101351.28;;;18.29;40.71
33075;BME280;19433;51.292;6.868;2023-04-19T07:27:52;101355.31;;;19.11;39.17
33075;BME280;19433;51.292;6.868;2023-04-19T07:30:18;101360.44;;;19.56;37.73
33075;BME280;19433;51.292;6.868;2023-04-19T07:32:43;101351.56;;;19.82;36.62
33075;BME280;19433;51.292;6.868;2023-04-19T07:35:10;101353.34;;;21.03;34.76
33075;BME280;19433;51.292;6.868;2023-04-19T07:37:36;101364.72;;;22.09;31.63
33075;BME280;19433;51.292;6.868;2023-04-19T07:40:01;101351.44;;;20.92;31.98
33075;BME280;19433;51.292;6.868;2023-04-19T07:42:28;101353.84;;;21.00;35.82
33075;BME280;19433;51.292;6.868;2023-04-19T07:44:54;101358.28;;;19.28;34.38
33075;BME280;19433;51.292;6.868;2023-04-19T07:47:19;101344.94;;;18.52;35.04
33075;BME280;19433;51.292;6.868;2023-04-19T07:49:45;101342.56;;;20.32;31.90
33075;BME280;19433;51.292;6.868;2023-04-19T07:52:10;101352.38;;;21.76;32.30
33075;BME280;19433;51.292;6.868;2023-04-19T07:54:35;101353.22;;;22.10;31.48
33075;BME280;19433;51.292;6.868;2023-04-19T07:57:03;101352.25;;;22.43;31.43
33075;BME280;19433;51.292;6.868;2023-04-19T07:59:28;101359.09;;;22.96;30.37
33075;BME280;19433;51.292;6.868;2023-04-19T08:01:54;101345.72;;;20.47;33.34
33075;BME280;19433;51.292;6.868;2023-04-19T08:04:19;101345.91;;;19.47;32.31
33075;BME280;19433;51.292;6.868;2023-04-19T08:06:46;101354.78;;;18.61;33.54
33075;BME280;19433;51.292;6.868;2023-04-19T08:09:12;101345.59;;;18.36;34.06
33075;BME280;19433;51.292;6.868;2023-04-19T08:11:37;101340.72;;;20.89;32.75
33075;BME280;19433;51.292;6.868;2023-04-19T08:14:03;101350.31;;;19.90;30.50
33075;BME280;19433;51.292;6.868;2023-04-19T08:16:28;101354.47;;;19.99;31.27
33075;BME280;19433;51.292;6.868;2023-04-19T08:18:54;101353.34;;;18.52;32.33
33075;BME280;19433;51.292;6.868;2023-04-19T08:21:19;101342.94;;;19.19;34.18
33075;BME280;19433;51.292;6.868;2023-04-19T08:23:45;101340.38;;;21.48;31.50
33075;BME280;19433;51.292;6.868;2023-04-19T08:26:12;101349.09;;;20.73;28.51
33075;BME280;19433;51.292;6.868;2023-04-19T08:28:37;101346.44;;;19.79;30.47
33075;BME280;19433;51.292;6.868;2023-04-19T08:31:05;101348.03;;;19.98;29.91
33075;BME280;19433;51.292;6.868;2023-04-19T08:33:32;101354.97;;;21.16;28.50
33075;BME280;19433;51.292;6.868;2023-04-19T08:35:57;101344.56;;;21.45;26.84
33075;BME280;19433;51.292;6.868;2023-04-19T08:38:22;101349.66;;;21.48;28.21
33075;BME280;19433;51.292;6.868;2023-04-19T08:40:51;101347.06;;;23.01;27.47
33075;BME280;19433;51.292;6.868;2023-04-19T08:43:18;101348.06;;;23.17;26.34
33075;BME280;19433;51.292;6.868;2023-04-19T08:45:46;101350.91;;;23.80;25.93
33075;BME280;19433;51.292;6.868;2023-04-19T08:48:14;101357.72;;;23.26;24.78
33075;BME280;19433;51.292;6.868;2023-04-19T08:50:40;101346.63;;;21.04;28.69
33075;BME280;19433;51.292;6.868;2023-04-19T08:53:07;101349.53;;;21.93;27.61
33075;BME280;19433;51.292;6.868;2023-04-19T08:55:33;101342.59;;;23.69;24.65
33075;BME280;19433;51.292;6.868;2023-04-19T08:58:02;101349.53;;;24.25;24.16
33075;BME280;19433;51.292;6.868;2023-04-19T09:00:27;101344.25;;;22.79;25.29
33075;BME280;19433;51.292;6.868;2023-04-19T09:02:53;101338.22;;;21.55;26.68
33075;BME280;19433;51.292;6.868;2023-04-19T09:05:22;101339.88;;;21.34;28.85
33075;BME280;19433;51.292;6.868;2023-04-19T09:07:48;101330.97;;;21.92;27.86
33075;BME280;19433;51.292;6.868;2023-04-19T09:10:17;101323.41;;;21.59;27.71
33075;BME280;19433;51.292;6.868;2023-04-19T09:12:59;101333.38;;;20.88;28.97
33075;BME280;19433;51.292;6.868;2023-04-19T09:15:38;101328.38;;;20.90;29.10
33075;BME280;19433;51.292;6.868;2023-04-19T09:18:06;101331.84;;;21.26;28.00
33075;BME280;19433;51.292;6.868;2023-04-19T09:20:42;101332.13;;;22.78;26.55
33075;BME280;19433;51.292;6.868;2023-04-19T09:23:14;101330.50;;;21.45;27.03
33075;BME280;19433;51.292;6.868;2023-04-19T09:25:50;101333.19;;;20.38;27.03
33075;BME280;19433;51.292;6.868;2023-04-19T09:28:16;101319.09;;;18.20;30.12
33075;BME280;19433;51.292;6.868;2023-04-19T09:30:41;101312.31;;;18.94;30.04
33075;BME280;19433;51.292;6.868;2023-04-19T09:33:07;101313.59;;;20.03;30.16
33075;BME280;19433;51.292;6.868;2023-04-19T09:35:43;101312.91;;;18.18;31.00
33075;BME280;19433;51.292;6.868;2023-04-19T09:38:09;101312.41;;;19.76;29.41
33075;BME280;19433;51.292;6.868;2023-04-19T09:40:36;101318.66;;;22.37;27.83
33075;BME280;19433;51.292;6.868;2023-04-19T09:43:02;101305.22;;;21.00;27.99
33075;BME280;19433;51.292;6.868;2023-04-19T09:45:39;101306.69;;;19.94;26.86
33075;BME280;19433;51.292;6.868;2023-04-19T09:48:06;101303.31;;;21.34;29.18
33075;BME280;19433;51.292;6.868;2023-04-19T09:50:31;101312.53;;;21.85;24.30
33075;BME280;19433;51.292;6.868;2023-04-19T09:52:57;101307.91;;;22.34;24.49
33075;BME280;19433;51.292;6.868;2023-04-19T09:55:25;101310.03;;;21.83;27.49
33075;BME280;19433;51.292;6.868;2023-04-19T09:57:51;101322.25;;;22.76;23.06
33075;BME280;19433;51.292;6.868;2023-04-19T10:00:17;101305.88;;;22.51;25.22
33075;BME280;19433;51.292;6.868;2023-04-19T10:02:43;101308.31;;;23.18;23.17
33075;BME280;19433;51.292;6.868;2023-04-19T10:05:09;101307.81;;;21.68;24.57
33075;BME280;19433;51.292;6.868;2023-04-19T10:07:34;101303.97;;;21.58;24.84
33075;BME280;19433;51.292;6.868;2023-04-19T10:10:01;101299.19;;;21.08;24.77
33075;BME280;19433;51.292;6.868;2023-04-19T10:12:26;101304.78;;;20.23;25.96
33075;BME280;19433;51.292;6.868;2023-04-19T10:14:55;101299.50;;;19.75;26.38
33075;BME280;19433;51.292;6.868;2023-04-19T10:17:22;101307.34;;;20.24;25.67
33075;BME280;19433;51.292;6.868;2023-04-19T10:19:51;101301.94;;;20.75;25.38
33075;BME280;19433;51.292;6.868;2023-04-19T10:22:19;101309.97;;;22.00;22.88
33075;BME280;19433;51.292;6.868;2023-04-19T10:25:07;101303.84;;;21.86;24.90
33075;BME280;19433;51.292;6.868;2023-04-19T10:27:33;101295.66;;;21.85;26.44
33075;BME280;19433;51.292;6.868;2023-04-19T10:30:00;101291.69;;;20.97;23.00
33075;BME280;19433;51.292;6.868;2023-04-19T10:32:41;101282.41;;;19.88;24.26
33075;BME280;19433;51.292;6.868;2023-04-19T10:35:15;101285.97;;;22.36;24.40
33075;BME280;19433;51.292;6.868;2023-04-19T10:38:01;101293.31;;;22.37;22.24
33075;BME280;19433;51.292;6.868;2023-04-19T10:43:18;101282.16;;;21.65;23.04
33075;BME280;19433;51.292;6.868;2023-04-19T10:45:44;101275.19;;;21.17;23.53
33075;BME280;19433;51.292;6.868;2023-04-19T10:51:04;101260.34;;;20.88;23.22
33075;BME280;19433;51.292;6.868;2023-04-19T10:56:10;101285.19;;;20.96;24.34
33075;BME280;19433;51.292;6.868;2023-04-19T11:04:11;101270.72;;;20.88;25.08
33075;BME280;19433;51.292;6.868;2023-04-19T11:06:55;101270.69;;;19.91;22.76
33075;BME280;19433;51.292;6.868;2023-04-19T11:09:25;101269.03;;;20.30;26.54
33075;BME280;19433;51.292;6.868;2023-04-19T11:11:52;101257.25;;;20.73;23.96
33075;BME280;19433;51.292;6.868;2023-04-19T11:14:19;101266.78;;;21.51;22.82
33075;BME280;19433;51.292;6.868;2023-04-19T11:16:45;101267.34;;;22.08;22.92
33075;BME280;19433;51.292;6.868;2023-04-19T11:19:16;101264.53;;;22.08;21.89
33075;BME280;19433;51.292;6.868;2023-04-19T11:21:44;101253.38;;;20.62;23.35
33075;BME280;19433;51.292;6.868;2023-04-19T11:24:10;101255.78;;;20.14;24.40
33075;BME280;19433;51.292;6.868;2023-04-19T11:26:36;101258.78;;;20.24;27.52
33075;BME280;19433;51.292;6.868;2023-04-19T11:29:01;101261.44;;;21.71;23.78
33075;BME280;19433;51.292;6.868;2023-04-19T11:31:27;101253.84;;;21.33;23.88
33075;BME280;19433;51.292;6.868;2023-04-19T11:33:53;101253.84;;;21.71;23.60
33075;BME280;19433;51.292;6.868;2023-04-19T11:36:19;101242.25;;;21.29;22.67
33075;BME280;19433;51.292;6.868;2023-04-19T11:38:48;101243.75;;;23.54;24.26
33075;BME280;19433;51.292;6.868;2023-04-19T11:41:13;101240.13;;;19.43;24.22
33075;BME280;19433;51.292;6.868;2023-04-19T11:43:38;101233.53;;;20.97;24.52
33075;BME280;19433;51.292;6.868;2023-04-19T11:46:05;101227.25;;;21.07;26.03
33075;BME280;19433;51.292;6.868;2023-04-19T11:48:32;101216.53;;;21.37;24.84
33075;BME280;19433;51.292;6.868;2023-04-19T11:50:58;101217.47;;;20.08;25.29
33075;BME280;19433;51.292;6.868;2023-04-19T11:53:24;101222.44;;;21.58;23.72
33075;BME280;19433;51.292;6.868;2023-04-19T11:55:52;101218.94;;;21.67;26.48
33075;BME280;19433;51.292;6.868;2023-04-19T11:58:33;101215.38;;;22.96;21.38
33075;BME280;19433;51.292;6.868;2023-04-19T12:01:11;101210.03;;;20.87;23.73
33075;BME280;19433;51.292;6.868;2023-04-19T12:03:51;101213.47;;;23.86;23.78
33075;BME280;19433;51.292;6.868;2023-04-19T12:06:24;101212.00;;;22.19;23.22
33075;BME280;19433;51.292;6.868;2023-04-19T12:08:51;101210.53;;;21.00;21.42
33075;BME280;19433;51.292;6.868;2023-04-19T12:11:19;101214.94;;;21.63;21.82
33075;BME280;19433;51.292;6.868;2023-04-19T12:13:45;101213.06;;;21.69;22.62
33075;BME280;19433;51.292;6.868;2023-04-19T12:16:12;101185.88;;;19.84;24.62
33075;BME280;19433;51.292;6.868;2023-04-19T12:18:47;101184.13;;;21.73;25.01
33075;BME280;19433;51.292;6.868;2023-04-19T12:21:28;101176.88;;;20.39;23.58
33075;BME280;19433;51.292;6.868;2023-04-19T12:23:55;101178.59;;;19.59;24.77
33075;BME280;19433;51.292;6.868;2023-04-19T12:26:21;101179.09;;;21.54;26.81
33075;BME280;19433;51.292;6.868;2023-04-19T12:28:46;101177.56;;;23.29;21.09
33075;BME280;19433;51.292;6.868;2023-04-19T12:31:11;101175.28;;;24.36;21.85
33075;BME280;19433;51.292;6.868;2023-04-19T12:33:37;101170.41;;;25.83;21.72
33075;BME280;19433;51.292;6.868;2023-04-19T12:36:02;101163.78;;;22.91;23.25
33075;BME280;19433;51.292;6.868;2023-04-19T12:38:27;101150.78;;;22.31;22.29
33075;BME280;19433;51.292;6.868;2023-04-19T12:40:52;101158.09;;;21.61;24.90
33075;BME280;19433;51.292;6.868;2023-04-19T12:43:18;101156.00;;;20.34;23.85
33075;BME280;19433;51.292;6.868;2023-04-19T12:45:43;101164.22;;;21.58;26.42
33075;BME280;19433;51.292;6.868;2023-04-19T12:48:08;101164.03;;;21.10;22.88
33075;BME280;19433;51.292;6.868;2023-04-19T12:50:34;101163.84;;;20.78;27.47
33075;BME280;19433;51.292;6.868;2023-04-19T12:52:59;101164.06;;;21.26;22.82
33075;BME280;19433;51.292;6.868;2023-04-19T12:55:24;101163.97;;;21.38;22.73
33075;BME280;19433;51.292;6.868;2023-04-19T12:57:50;101152.47;;;20.11;25.34
33075;BME280;19433;51.292;6.868;2023-04-19T13:00:15;101152.06;;;19.50;24.25
33075;BME280;19433;51.292;6.868;2023-04-19T13:02:41;101151.38;;;19.83;24.82
33075;BME280;19433;51.292;6.868;2023-04-19T13:05:07;101156.91;;;21.02;25.56
33075;BME280;19433;51.292;6.868;2023-04-19T13:07:32;101158.88;;;21.79;23.30
33075;BME280;19433;51.292;6.868;2023-04-19T13:09:58;101139.31;;;21.89;22.79
33075;BME280;19433;51.292;6.868;2023-04-19T13:12:23;101139.84;;;21.64;24.91
33075;BME280;19433;51.292;6.868;2023-04-19T13:14:48;101145.25;;;22.41;22.78
33075;BME280;19433;51.292;6.868;2023-04-19T13:17:19;101135.06;;;23.36;23.48
33075;BME280;19433;51.292;6.868;2023-04-19T13:19:44;101142.84;;;22.82;24.17
33075;BME280;19433;51.292;6.868;2023-04-19T13:22:10;101123.97;;;20.64;24.89
33075;BME280;19433;51.292;6.868;2023-04-19T13:24:35;101123.72;;;20.65;25.47
33075;BME280;19433;51.292;6.868;2023-04-19T13:27:00;101124.63;;;21.38;26.98
33075;BME280;19433;51.292;6.868;2023-04-19T13:29:26;101122.31;;;21.35;25.53
33075;BME280;19433;51.292;6.868;2023-04-19T13:31:53;101117.38;;;22.71;22.75
33075;BME280;19433;51.292;6.868;2023-04-19T13:34:18;101118.34;;;20.97;24.10
33075;BME280;19433;51.292;6.868;2023-04-19T13:36:43;101123.13;;;20.63;24.63
33075;BME280;19433;51.292;6.868;2023-04-19T13:39:08;101111.44;;;21.22;25.46
33075;BME280;19433;51.292;6.868;2023-04-19T13:41:34;101102.88;;;19.71;25.41
33075;BME280;19433;51.292;6.868;2023-04-19T13:43:59;101102.88;;;20.78;27.47
33075;BME280;19433;51.292;6.868;2023-04-19T13:46:25;101095.72;;;18.88;26.30
33075;BME280;19433;51.292;6.868;2023-04-19T13:48:50;101087.31;;;18.77;26.54
33075;BME280;19433;51.292;6.868;2023-04-19T13:51:15;101076.38;;;19.79;26.29
33075;BME280;19433;51.292;6.868;2023-04-19T13:53:40;101085.81;;;18.97;28.26
33075;BME280;19433;51.292;6.868;2023-04-19T13:56:06;101087.88;;;19.14;26.52
33075;BME280;19433;51.292;6.868;2023-04-19T13:58:35;101073.00;;;17.90;26.31
33075;BME280;19433;51.292;6.868;2023-04-19T14:01:01;101077.06;;;18.47;27.35
33075;BME280;19433;51.292;6.868;2023-04-19T14:03:27;101070.72;;;18.52;30.02
33075;BME280;19433;51.292;6.868;2023-04-19T14:05:52;101069.75;;;17.93;27.44
33075;BME280;19433;51.292;6.868;2023-04-19T14:08:17;101062.59;;;18.74;27.00
33075;BME280;19433;51.292;6.868;2023-04-19T14:10:43;101061.75;;;18.61;27.36
33075;BME280;19433;51.292;6.868;2023-04-19T14:13:08;101064.56;;;17.67;26.52
33075;BME280;19433;51.292;6.868;2023-04-19T14:15:33;101066.19;;;18.51;26.82
33075;BME280;19433;51.292;6.868;2023-04-19T14:17:59;101050.09;;;18.00;27.14
33075;BME280;19433;51.292;6.868;2023-04-19T14:20:24;101051.50;;;18.32;26.02
33075;BME280;19433;51.292;6.868;2023-04-19T14:22:50;101050.53;;;19.48;26.41
33075;BME280;19433;51.292;6.868;2023-04-19T14:25:15;101042.28;;;18.78;28.75
33075;BME280;19433;51.292;6.868;2023-04-19T14:27:42;101037.44;;;18.09;26.22
33075;BME280;19433;51.292;6.868;2023-04-19T14:30:08;101032.00;;;19.07;29.50
33075;BME280;19433;51.292;6.868;2023-04-19T14:32:34;101024.97;;;18.46;26.96
33075;BME280;19433;51.292;6.868;2023-04-19T14:34:59;101024.34;;;17.68;30.62
33075;BME280;19433;51.292;6.868;2023-04-19T14:37:26;101041.34;;;18.19;25.28
33075;BME280;19433;51.292;6.868;2023-04-19T14:39:52;101029.03;;;18.62;26.81
33075;BME280;19433;51.292;6.868;2023-04-19T14:42:17;101018.69;;;17.26;26.87
33075;BME280;19433;51.292;6.868;2023-04-19T14:44:43;101012.75;;;17.34;28.68
33075;BME280;19433;51.292;6.868;2023-04-19T14:47:09;101010.03;;;17.28;28.18
33075;BME280;19433;51.292;6.868;2023-04-19T14:49:35;101017.91;;;16.82;28.83
33075;BME280;19433;51.292;6.868;2023-04-19T14:52:00;101008.09;;;16.55;29.65
33075;BME280;19433;51.292;6.868;2023-04-19T14:54:25;101000.34;;;16.14;31.73
33075;BME280;19433;51.292;6.868;2023-04-19T14:56:51;101000.91;;;16.23;28.11
33075;BME280;19433;51.292;6.868;2023-04-19T14:59:16;100995.88;;;15.50;30.11
33075;BME280;19433;51.292;6.868;2023-04-19T15:01:42;100992.50;;;16.29;31.93
33075;BME280;19433;51.292;6.868;2023-04-19T15:04:07;100998.16;;;16.41;30.10
33075;BME280;19433;51.292;6.868;2023-04-19T15:06:33;100995.38;;;16.41;29.10
33075;BME280;19433;51.292;6.868;2023-04-19T15:08:58;100976.44;;;16.25;29.89
33075;BME280;19433;51.292;6.868;2023-04-19T15:11:23;100993.50;;;15.60;28.86
33075;BME280;19433;51.292;6.868;2023-04-19T15:13:48;100987.09;;;15.85;32.36
33075;BME280;19433;51.292;6.868;2023-04-19T15:16:14;100991.13;;;15.64;29.51
33075;BME280;19433;51.292;6.868;2023-04-19T15:18:39;100978.78;;;15.46;28.50
33075;BME280;19433;51.292;6.868;2023-04-19T15:21:05;100988.16;;;15.52;32.84
33075;BME280;19433;51.292;6.868;2023-04-19T15:23:30;100971.50;;;15.45;32.58
33075;BME280;19433;51.292;6.868;2023-04-19T15:25:56;100972.44;;;15.33;30.81
33075;BME280;19433;51.292;6.868;2023-04-19T15:28:24;100975.38;;;15.00;29.60
33075;BME280;19433;51.292;6.868;2023-04-19T15:30:59;100981.38;;;14.26;29.52
33075;BME280;19433;51.292;6.868;2023-04-19T15:33:24;100974.53;;;14.28;30.39
33075;BME280;19433;51.292;6.868;2023-04-19T15:35:51;100973.25;;;14.31;29.62
33075;BME280;19433;51.292;6.868;2023-04-19T15:38:17;100973.03;;;14.32;30.22
33075;BME280;19433;51.292;6.868;2023-04-19T15:40:42;100970.72;;;14.16;34.59
33075;BME280;19433;51.292;6.868;2023-04-19T15:43:07;100981.59;;;14.11;30.35
33075;BME280;19433;51.292;6.868;2023-04-19T15:45:32;100949.34;;;13.97;30.69
33075;BME280;19433;51.292;6.868;2023-04-19T15:47:58;100960.03;;;14.20;33.70
33075;BME280;19433;51.292;6.868;2023-04-19T15:50:23;100976.28;;;13.96;30.37
33075;BME280;19433;51.292;6.868;2023-04-19T15:52:48;100965.38;;;13.82;30.94
33075;BME280;19433;51.292;6.868;2023-04-19T15:55:14;100969.00;;;13.76;32.19
33075;BME280;19433;51.292;6.868;2023-04-19T15:57:39;100958.94;;;13.61;30.29
33075;BME280;19433;51.292;6.868;2023-04-19T16:00:05;100951.03;;;13.45;30.65
33075;BME280;19433;51.292;6.868;2023-04-19T16:02:33;100964.72;;;13.93;30.82
33075;BME280;19433;51.292;6.868;2023-04-19T16:04:58;100964.31;;;13.83;30.76
33075;BME280;19433;51.292;6.868;2023-04-19T16:07:23;100951.72;;;13.67;32.01
33075;BME280;19433;51.292;6.868;2023-04-19T16:09:49;100938.69;;;13.74;33.80
33075;BME280;19433;51.292;6.868;2023-04-19T16:12:14;100934.19;;;13.86;31.83
33075;BME280;19433;51.292;6.868;2023-04-19T16:14:39;100950.44;;;13.69;32.76
33075;BME280;19433;51.292;6.868;2023-04-19T16:17:05;100930.31;;;13.94;32.79
33075;BME280;19433;51.292;6.868;2023-04-19T16:19:30;100945.72;;;13.77;32.35
33075;BME280;19433;51.292;6.868;2023-04-19T16:21:55;100929.94;;;13.57;32.93
33075;BME280;19433;51.292;6.868;2023-04-19T16:24:21;100936.75;;;13.55;32.48
33075;BME280;19433;51.292;6.868;2023-04-19T16:26:46;100940.78;;;13.46;31.96
33075;BME280;19433;51.292;6.868;2023-04-19T16:29:12;100947.44;;;13.71;31.62
33075;BME280;19433;51.292;6.868;2023-04-19T16:31:37;100936.53;;;13.83;30.88
33075;BME280;19433;51.292;6.868;2023-04-19T16:34:02;100936.94;;;13.60;31.38
33075;BME280;19433;51.292;6.868;2023-04-19T16:36:28;100931.22;;;13.75;33.33
33075;BME280;19433;51.292;6.868;2023-04-19T16:38:53;100943.59;;;13.65;30.52
33075;BME280;19433;51.292;6.868;2023-04-19T16:41:18;100932.03;;;13.62;31.79
33075;BME280;19433;51.292;6.868;2023-04-19T16:43:43;100939.09;;;13.64;31.12
33075;BME280;19433;51.292;6.868;2023-04-19T16:46:09;100936.56;;;13.56;30.95
33075;BME280;19433;51.292;6.868;2023-04-19T16:48:35;100939.91;;;13.32;30.91
33075;BME280;19433;51.292;6.868;2023-04-19T16:51:00;100941.19;;;13.23;32.33
33075;BME280;19433;51.292;6.868;2023-04-19T16:53:26;100946.78;;;13.62;33.24
33075;BME280;19433;51.292;6.868;2023-04-19T16:55:51;100941.88;;;13.64;34.17
33075;BME280;19433;51.292;6.868;2023-04-19T16:58:16;100953.38;;;13.35;31.54
33075;BME280;19433;51.292;6.868;2023-04-19T17:00:42;100942.03;;;13.30;33.98
33075;BME280;19433;51.292;6.868;2023-04-19T17:03:07;100956.25;;;13.00;29.75
33075;BME280;19433;51.292;6.868;2023-04-19T17:05:33;100947.22;;;12.85;31.87
33075;BME280;19433;51.292;6.868;2023-04-19T17:07:58;100940.41;;;12.81;31.03
33075;BME280;19433;51.292;6.868;2023-04-19T17:10:25;100930.34;;;12.74;32.37
33075;BME280;19433;51.292;6.868;2023-04-19T17:12:50;100934.13;;;12.59;32.99
33075;BME280;19433;51.292;6.868;2023-04-19T17:15:15;100952.25;;;12.21;32.02
33075;BME280;19433;51.292;6.868;2023-04-19T17:17:41;100950.81;;;11.97;33.66
33075;BME280;19433;51.292;6.868;2023-04-19T17:20:07;100941.50;;;12.05;34.37
33075;BME280;19433;51.292;6.868;2023-04-19T17:22:32;100941.56;;;11.83;32.59
33075;BME280;19433;51.292;6.868;2023-04-19T17:24:58;100936.16;;;11.75;32.57
33075;BME280;19433;51.292;6.868;2023-04-19T17:27:24;100936.06;;;11.69;33.34
33075;BME280;19433;51.292;6.868;2023-04-19T17:29:49;100933.69;;;11.66;34.98
33075;BME280;19433;51.292;6.868;2023-04-19T17:32:15;100932.25;;;11.70;32.70
33075;BME280;19433;51.292;6.868;2023-04-19T17:34:40;100926.44;;;11.64;32.38
33075;BME280;19433;51.292;6.868;2023-04-19T17:37:05;100936.28;;;11.67;34.28
33075;BME280;19433;51.292;6.868;2023-04-19T17:39:31;100938.66;;;11.49;32.54
33075;BME280;19433;51.292;6.868;2023-04-19T17:41:56;100938.22;;;11.45;33.24
33075;BME280;19433;51.292;6.868;2023-04-19T17:44:22;100940.53;;;11.42;33.67
33075;BME280;19433;51.292;6.868;2023-04-19T17:46:48;100932.63;;;11.39;34.11
33075;BME280;19433;51.292;6.868;2023-04-19T17:49:13;100934.72;;;11.37;36.47
33075;BME280;19433;51.292;6.868;2023-04-19T17:51:40;100948.72;;;11.28;34.85
33075;BME280;19433;51.292;6.868;2023-04-19T17:54:06;100938.28;;;11.31;35.92
33075;BME280;19433;51.292;6.868;2023-04-19T17:56:31;100939.63;;;11.13;33.31
33075;BME280;19433;51.292;6.868;2023-04-19T17:58:56;100937.28;;;11.17;34.63
33075;BME280;19433;51.292;6.868;2023-04-19T18:01:24;100934.19;;;11.05;33.93
33075;BME280;19433;51.292;6.868;2023-04-19T18:03:50;100945.13;;;10.92;33.61
33075;BME280;19433;51.292;6.868;2023-04-19T18:06:15;100935.50;;;10.88;38.35
33075;BME280;19433;51.292;6.868;2023-04-19T18:08:41;100933.81;;;10.72;36.74
33075;BME280;19433;51.292;6.868;2023-04-19T18:11:10;100944.88;;;10.72;34.69
33075;BME280;19433;51.292;6.868;2023-04-19T18:13:35;100946.34;;;10.68;35.79
33075;BME280;19433;51.292;6.868;2023-04-19T18:16:00;100948.69;;;10.71;35.44
33075;BME280;19433;51.292;6.868;2023-04-19T18:18:27;100948.31;;;10.60;35.66
33075;BME280;19433;51.292;6.868;2023-04-19T18:20:53;100960.63;;;10.57;36.56
33075;BME280;19433;51.292;6.868;2023-04-19T18:23:18;100948.81;;;10.48;35.49
33075;BME280;19433;51.292;6.868;2023-04-19T18:25:51;100953.88;;;10.45;39.18
33075;BME280;19433;51.292;6.868;2023-04-19T18:28:16;100958.53;;;10.15;37.20
33075;BME280;19433;51.292;6.868;2023-04-19T18:30:42;100960.50;;;9.92;37.61